ロサンゼルス の空港の天気 - METARとTAF

ロサンゼルス国際空港 ( KLAX / LAX ) - アメリカ合衆国 カリフォルニア州ロサンゼルス
飛行場実況気象(Metar)
観測時間02/27 13:53 PST (02/27 21:53 UTC)
風向・風速西南西 3m/s
視程10km以上
天気現象
少しの雲 雲底高度 370m
全天の4割程度の雲 雲底高度 1370m
全天を覆う雲 雲底高度 2290m
気温13.3℃
湿度72%
気圧1010.7hPa
METARKLAX 272153Z 25006KT 10SM FEW012 SCT045 OVC075 13/08 A2985 RMK AO2 SLP107 T01330083
過去の天気等 Google飛行場航空写真 Wunderground天気予報

過去48時間のMETAR

飛行場予報(TAF)
発表時間: 2/27 14:16 PST (2/27 22:16 UTC)
予報対象時間: 27日14時 PST ~ 28日16時 PST
風向・風速西 6m/s
視程10km以上
全天の8割程度の雲 雲底高度 1,520m
全天の8割程度の雲 雲底高度 3,660m
27日20時 PST から
風向・風速西北西 4m/s
視程10km以上
全天の8割程度の雲 雲底高度 1,830m
全天の8割程度の雲 雲底高度 4,570m
28日2時 PST から
風向・風速不定 2m/s
視程10km以上
全天の4割程度の雲 雲底高度 4,570m
28日12時 PST から
風向・風速西 4m/s
視程10km以上
なし
KLAX 272216Z 2722/2824 27012KT P6SM BKN050 BKN120
FM280400 29008KT P6SM BKN060 BKN150
FM281000 VRB03KT P6SM SCT150
FM282000 27008KT P6SM SKC